Time;durP1;ratioP1;P1;durP2;ratioP2;P2;SDS_P1;SDS_P2;PMS_P1;PMS_P2;Temp;Humidity;BMP_temperature;BMP_pressure;BME280_temperature;BME280_humidity;BME280_pressure;Samples;Min_cycle;Max_cycle;Signal;HPM_P1;HPM_P2
2022/05/16 00:02:19;;;;;;;;;;;;;;;-140.72;100.00;52230.56;5034605;28;20515;-71
2022/05/16 00:04:46;;;;;;;;;;;;;;;-140.72;100.00;52263.03;5016882;28;19932;-71
2022/05/16 00:07:11;;;;;;;;;;;;;;;-140.72;100.00;52240.72;5034522;28;20434;-71
2022/05/16 00:09:36;;;;;;;;;;;;;;;-140.72;100.00;52244.78;5034524;28;19917;-71
2022/05/16 00:12:02;;;;;;;;;;;;;;;-140.72;100.00;52275.19;5034717;28;19917;-71
2022/05/16 00:14:28;;;;;;;;;;;;;;;-140.72;100.00;52236.66;5034331;28;19921;-71
2022/05/16 00:16:53;;;;;;;;;;;;;;;-140.72;100.00;52273.19;5034420;28;20328;-71
2022/05/16 00:19:22;;;;;;;;;;;;;;;-140.72;100.00;52240.72;5027667;28;19918;-71
2022/05/16 00:21:48;;;;;;;;;;;;;;;-140.72;100.00;52228.53;5014883;28;19922;-71
2022/05/16 00:24:13;;;;;;;;;;;;;;;-140.72;100.00;52248.81;5015046;28;19960;-71
2022/05/16 00:29:50;;;;;;;;;;;;;;;-140.72;100.00;52248.81;5015249;28;20356;-71
2022/05/16 00:32:17;;;;;;;;;;;;;;;-140.72;100.00;52230.56;5014505;28;19918;-70
2022/05/16 00:34:42;;;;;;;;;;;;;;;-140.72;100.00;52246.78;5014197;28;19917;-71
2022/05/16 00:37:07;;;;;;;;;;;;;;;-140.72;100.00;52273.19;5014868;28;19922;-71
2022/05/16 00:39:32;;;;;;;;;;;;;;;-140.72;100.00;52285.34;5014159;28;20020;-71
2022/05/16 00:44:59;;;;;;;;;;;;;;;-140.72;100.00;52244.78;5015325;28;19996;-71
2022/05/16 00:47:24;;;;;;;;;;;;;;;-140.72;100.00;52271.16;5014303;28;20357;-71
2022/05/16 00:49:51;;;;;;;;;;;;;;;-140.72;100.00;52261.00;5014012;28;19971;-71
2022/05/16 00:52:17;;;;;;;;;;;;;;;-140.72;100.00;52238.69;5014216;28;19922;-71
2022/05/16 00:54:44;;;;;;;;;;;;;;;-140.72;100.00;52261.00;5013996;28;19945;-71
2022/05/16 00:57:12;;;;;;;;;;;;;;;-140.72;100.00;52271.16;5014276;28;19918;-71
2022/05/16 00:59:44;;;;;;;;;;;;;;;-140.72;100.00;52277.22;5014015;28;20015;-71
2022/05/16 01:04:55;;;;;;;;;;;;;;;-140.72;100.00;52283.31;5013854;28;19924;-70
2022/05/16 01:07:26;;;;;;;;;;;;;;;-140.72;100.00;52277.22;5014150;28;19957;-70
2022/05/16 01:09:51;;;;;;;;;;;;;;;-140.72;100.00;52261.00;5012594;28;19924;-70
2022/05/16 01:12:17;;;;;;;;;;;;;;;-140.72;100.00;52269.13;5013787;28;20012;-70
2022/05/16 01:14:45;;;;;;;;;;;;;;;-140.72;100.00;52252.88;5014019;28;19921;-70
2022/05/16 01:17:10;;;;;;;;;;;;;;;-140.72;100.00;52263.03;5013696;28;19918;-70
2022/05/16 01:19:35;;;;;;;;;;;;;;;-140.72;100.00;52258.97;5013663;28;19918;-70
2022/05/16 01:22:04;;;;;;;;;;;;;;;-140.72;100.00;52252.88;5013761;28;19918;-70
2022/05/16 01:24:29;;;;;;;;;;;;;;;-140.72;100.00;52289.41;5013981;28;19917;-70
2022/05/16 01:26:54;;;;;;;;;;;;;;;-140.72;100.00;52248.81;4996073;28;19918;-70
2022/05/16 01:29:20;;;;;;;;;;;;;;;-140.72;100.00;52293.47;5013623;28;19925;-70
2022/05/16 01:31:45;;;;;;;;;;;;;;;-140.72;100.00;52289.41;5013871;28;19924;-70
2022/05/16 01:34:11;;;;;;;;;;;;;;;-140.72;100.00;52254.91;5013575;28;19961;-70
2022/05/16 01:36:37;;;;;;;;;;;;;;;-140.72;100.00;52295.50;5013622;28;19944;-70
2022/05/16 01:39:02;;;;;;;;;;;;;;;-140.72;100.00;52273.19;5013416;28;19964;-70
2022/05/16 01:41:27;;;;;;;;;;;;;;;-140.72;100.00;52295.50;5013761;28;19921;-70
2022/05/16 01:43:55;;;;;;;;;;;;;;;-140.72;100.00;52252.88;4996058;28;20274;-70
2022/05/16 01:46:47;;;;;;;;;;;;;;;-140.72;100.00;52305.63;5013634;28;19956;-70
2022/05/16 01:49:12;;;;;;;;;;;;;;;-140.72;100.00;52273.19;5009192;28;19928;-70
2022/05/16 01:51:38;;;;;;;;;;;;;;;-140.72;100.00;52289.41;5013827;28;19921;-70
2022/05/16 01:54:03;;;;;;;;;;;;;;;-140.72;100.00;52301.59;5013734;28;20246;-70
2022/05/16 01:56:30;;;;;;;;;;;;;;;-140.72;100.00;52287.38;4995789;28;19953;-70
2022/05/16 01:58:55;;;;;;;;;;;;;;;-140.72;100.00;52287.38;5013545;28;19987;-70
2022/05/16 02:01:21;;;;;;;;;;;;;;;-140.72;100.00;52293.47;5013300;28;20373;-70
2022/05/16 02:03:47;;;;;;;;;;;;;;;-140.72;100.00;52269.13;4996372;28;20285;-70
2022/05/16 02:06:13;;;;;;;;;;;;;;;-140.72;100.00;52267.09;5017952;28;20357;-70
2022/05/16 02:08:38;;;;;;;;;;;;;;;-140.72;100.00;52256.94;5016943;28;19928;-70
2022/05/16 02:11:05;;;;;;;;;;;;;;;-140.72;100.00;52265.06;5016931;28;19924;-70
2022/05/16 02:13:32;;;;;;;;;;;;;;;-140.72;100.00;52263.03;5016976;28;19924;-70
2022/05/16 02:15:59;;;;;;;;;;;;;;;-140.72;100.00;52273.19;5016859;28;19924;-70
2022/05/16 02:18:24;;;;;;;;;;;;;;;-140.72;100.00;52275.19;5017146;28;20031;-70
2022/05/16 02:20:49;;;;;;;;;;;;;;;-140.72;100.00;52291.44;5016702;28;20385;-70
2022/05/16 02:25:58;;;;;;;;;;;;;;;-140.72;100.00;52323.91;5017097;28;19928;-70
2022/05/16 02:28:24;;;;;;;;;;;;;;;-140.72;100.00;52297.53;5016609;28;20297;-70
2022/05/16 02:30:49;;;;;;;;;;;;;;;-140.72;100.00;52311.72;5016596;28;19917;-70
2022/05/16 02:33:16;;;;;;;;;;;;;;;-140.72;100.00;52289.41;5037578;23;19986;-67
2022/05/16 02:35:42;;;;;;;;;;;;;;;-140.72;100.00;52287.38;5027671;28;20361;-66
2022/05/16 02:38:08;;;;;;;;;;;;;;;-140.72;100.00;52293.47;5016059;28;19924;-67
2022/05/16 02:40:53;;;;;;;;;;;;;;;-140.72;100.00;52313.75;5016055;28;19921;-67
2022/05/16 02:43:19;;;;;;;;;;;;;;;-140.72;100.00;52289.41;5016020;28;20008;-67
2022/05/16 02:45:44;;;;;;;;;;;;;;;-140.72;100.00;52293.47;5025416;28;19925;-67
2022/05/16 02:48:09;;;;;;;;;;;;;;;-140.72;100.00;52295.50;5017582;28;20315;-67
2022/05/16 02:50:35;;;;;;;;;;;;;;;-140.72;100.00;52317.81;5035418;28;19917;-66
2022/05/16 02:53:00;;;;;;;;;;;;;;;-140.72;100.00;52317.81;5035452;28;19937;-67
2022/05/16 02:55:25;;;;;;;;;;;;;;;-140.72;100.00;52295.50;5035508;28;20269;-66
2022/05/16 02:57:51;;;;;;;;;;;;;;;-140.72;100.00;52285.34;5035302;28;20363;-67
2022/05/16 03:00:17;;;;;;;;;;;;;;;-140.72;100.00;52323.91;5035555;28;19917;-66
2022/05/16 03:02:43;;;;;;;;;;;;;;;-140.72;100.00;52317.81;5017574;28;19916;-66
2022/05/16 03:05:09;;;;;;;;;;;;;;;-140.72;100.00;52309.69;5017449;28;20349;-66
2022/05/16 03:07:34;;;;;;;;;;;;;;;-140.72;100.00;52295.50;5035022;28;19921;-68
2022/05/16 03:10:00;;;;;;;;;;;;;;;-140.72;100.00;52277.22;5033940;28;19917;-68
2022/05/16 03:12:25;;;;;;;;;;;;;;;-140.72;100.00;52289.41;5016119;28;20091;-67
2022/05/16 03:14:50;;;;;;;;;;;;;;;-140.72;100.00;52285.34;5033836;28;19918;-67
2022/05/16 03:17:15;;;;;;;;;;;;;;;-140.72;100.00;52295.50;5015261;28;19940;-68
2022/05/16 03:19:41;;;;;;;;;;;;;;;-140.72;100.00;52289.41;5015837;28;20322;-67
2022/05/16 03:22:06;;;;;;;;;;;;;;;-140.72;100.00;52295.50;5015956;28;19917;-68
2022/05/16 03:24:32;;;;;;;;;;;;;;;-140.72;100.00;52313.75;5033800;28;19918;-68
2022/05/16 03:26:58;;;;;;;;;;;;;;;-140.72;100.00;52313.75;5033650;28;19999;-68
2022/05/16 03:29:23;;;;;;;;;;;;;;;-140.72;100.00;52299.56;5015803;28;19917;-68
2022/05/16 03:31:48;;;;;;;;;;;;;;;-140.72;100.00;52285.34;5033635;28;19921;-68
2022/05/16 03:34:13;;;;;;;;;;;;;;;-140.72;100.00;52267.09;5033832;28;19925;-67
2022/05/16 03:36:39;;;;;;;;;;;;;;;-140.72;100.00;52362.44;5033494;28;19924;-68
2022/05/16 03:41:49;;;;;;;;;;;;;;;-140.72;100.00;52307.66;5033674;28;20340;-66
2022/05/16 03:44:14;;;;;;;;;;;;;;;-140.72;100.00;52313.75;5033207;28;19925;-66
2022/05/16 03:46:40;;;;;;;;;;;;;;;-140.72;100.00;52332.03;5033561;28;19939;-65
2022/05/16 03:49:06;;;;;;;;;;;;;;;-140.72;100.00;52261.00;5033204;28;19921;-66
2022/05/16 03:51:31;;;;;;;;;;;;;;;-140.72;100.00;52330.00;5033222;28;19918;-66
2022/05/16 03:53:56;;;;;;;;;;;;;;;-140.72;100.00;52299.56;5015315;28;19917;-66
2022/05/16 03:56:23;;;;;;;;;;;;;;;-140.72;100.00;52332.03;5032905;28;19917;-66
2022/05/16 03:58:48;;;;;;;;;;;;;;;-140.72;100.00;52334.03;5033046;28;19917;-66
2022/05/16 04:01:14;;;;;;;;;;;;;;;-140.72;100.00;52309.69;5032797;28;20244;-66
2022/05/16 04:03:39;;;;;;;;;;;;;;;-140.72;100.00;52352.31;5033374;28;19924;-68
2022/05/16 04:06:05;;;;;;;;;;;;;;;-140.72;100.00;52303.59;5033975;28;19924;-65
2022/05/16 04:08:31;;;;;;;;;;;;;;;-140.72;100.00;52307.66;5033798;28;19924;-66
2022/05/16 04:10:56;;;;;;;;;;;;;;;-140.72;100.00;52279.25;5033864;28;19927;-67
2022/05/16 04:13:22;;;;;;;;;;;;;;;-140.72;100.00;52315.78;5034127;28;19917;-67
2022/05/16 04:15:47;;;;;;;;;;;;;;;-140.72;100.00;52321.88;5033922;28;20319;-67
2022/05/16 04:18:12;;;;;;;;;;;;;;;-140.72;100.00;52299.56;5033960;28;19964;-67
2022/05/16 04:20:38;;;;;;;;;;;;;;;-140.72;100.00;52285.34;5033676;28;19971;-67
2022/05/16 04:23:03;;;;;;;;;;;;;;;-140.72;100.00;52297.53;5033780;28;19924;-66
2022/05/16 04:25:29;;;;;;;;;;;;;;;-140.72;100.00;52295.50;5033664;28;19991;-66
2022/05/16 04:27:54;;;;;;;;;;;;;;;-140.72;100.00;52289.41;5034295;28;20343;-72
2022/05/16 04:30:20;;;;;;;;;;;;;;;-140.72;100.00;52293.47;5006651;28;19918;-73
2022/05/16 04:32:45;;;;;;;;;;;;;;;-140.72;100.00;52287.38;5014301;28;19922;-72
2022/05/16 04:35:10;;;;;;;;;;;;;;;-140.72;100.00;52283.31;5013885;28;19964;-73
2022/05/16 04:37:35;;;;;;;;;;;;;;;-140.72;100.00;52293.47;5013722;28;20000;-72
2022/05/16 04:40:02;;;;;;;;;;;;;;;-140.72;100.00;52289.41;5013757;28;19925;-73
2022/05/16 04:42:46;;;;;;;;;;;;;;;-140.72;100.00;52289.41;5000698;28;19948;-70
2022/05/16 04:45:20;;;;;;;;;;;;;;;-140.72;100.00;52271.16;5027762;28;19929;-72
2022/05/16 04:47:47;;;;;;;;;;;;;;;-140.72;100.00;52301.59;4997517;28;19917;-71
2022/05/16 04:50:15;;;;;;;;;;;;;;;-140.72;100.00;52269.13;5013668;28;19949;-70
2022/05/16 04:52:40;;;;;;;;;;;;;;;-140.72;100.00;52224.47;5028249;28;19964;-68
2022/05/16 04:55:06;;;;;;;;;;;;;;;-140.72;100.00;52246.78;5015447;28;19952;-68
2022/05/16 04:57:32;;;;;;;;;;;;;;;-140.72;100.00;52261.00;5032803;28;19928;-67
2022/05/16 04:59:57;;;;;;;;;;;;;;;-140.72;100.00;52216.34;5014853;28;19925;-68
2022/05/16 05:02:22;;;;;;;;;;;;;;;-140.72;100.00;52210.28;5015040;28;19925;-68
2022/05/16 05:04:48;;;;;;;;;;;;;;;-140.72;100.00;52250.84;5032795;28;19971;-68
2022/05/16 05:07:14;;;;;;;;;;;;;;;-140.72;100.00;52220.41;5014798;28;19921;-68
2022/05/16 05:15:08;;;;;;;;;;;;;;;-140.72;100.00;52238.69;5033277;28;19959;-67
2022/05/16 05:17:34;;;;;;;;;;;;;;;-140.72;100.00;52232.59;5032862;28;20043;-68
2022/05/16 05:19:59;;;;;;;;;;;;;;;-140.72;100.00;52273.19;5033169;28;20337;-68
2022/05/16 05:22:24;;;;;;;;;;;;;;;-140.72;100.00;52258.97;5015346;28;19921;-67
2022/05/16 05:24:49;;;;;;;;;;;;;;;-140.72;100.00;52258.97;5032748;28;19952;-70
2022/05/16 05:27:14;;;;;;;;;;;;;;;-140.72;100.00;52236.66;5015637;28;20027;-68
2022/05/16 05:29:40;;;;;;;;;;;;;;;-140.72;100.00;52238.69;5035414;28;20429;-78
2022/05/16 05:32:06;;;;;;;;;;;;;;;-140.72;100.00;52234.63;5016602;28;19928;-68
2022/05/16 05:34:34;;;;;;;;;;;;;;;-140.72;100.00;52250.84;5017307;28;20331;-68
2022/05/16 05:37:00;;;;;;;;;;;;;;;-140.72;100.00;52226.50;5016707;28;19925;-67
2022/05/16 05:39:26;;;;;;;;;;;;;;;-140.72;100.00;52220.41;5033895;28;20291;-68
2022/05/16 05:41:51;;;;;;;;;;;;;;;-140.72;100.00;52285.34;5018981;28;19924;-67
2022/05/16 05:44:16;;;;;;;;;;;;;;;-140.72;100.00;52254.91;5037209;28;19917;-68
2022/05/16 05:46:41;;;;;;;;;;;;;;;-140.72;100.00;52273.19;5038541;28;19920;-68
2022/05/16 05:49:09;;;;;;;;;;;;;;;-140.72;100.00;52254.91;5037600;28;20383;-68
2022/05/16 05:51:34;;;;;;;;;;;;;;;-140.72;100.00;52252.88;5037982;28;19928;-71
2022/05/16 05:53:59;;;;;;;;;;;;;;;-140.72;100.00;52299.56;5019666;28;19917;-70
2022/05/16 05:56:25;;;;;;;;;;;;;;;-140.72;100.00;52269.13;5036970;28;19917;-69
2022/05/16 05:58:50;;;;;;;;;;;;;;;-140.72;100.00;52240.72;5019151;28;20256;-70
2022/05/16 06:01:15;;;;;;;;;;;;;;;-140.72;100.00;52273.19;5036465;28;19921;-68
2022/05/16 06:03:40;;;;;;;;;;;;;;;-140.72;100.00;52220.41;5036522;28;19944;-71
2022/05/16 06:06:06;;;;;;;;;;;;;;;-140.72;100.00;52254.91;5036177;28;19921;-68
2022/05/16 06:08:31;;;;;;;;;;;;;;;-140.72;100.00;52214.34;5019084;28;19924;-68
2022/05/16 06:10:56;;;;;;;;;;;;;;;-140.72;100.00;52226.50;5036846;28;20383;-67
2022/05/16 06:13:21;;;;;;;;;;;;;;;-140.72;100.00;52256.94;5027177;28;19917;-67
2022/05/16 06:15:47;;;;;;;;;;;;;;;-140.72;100.00;52238.69;4997654;28;19925;-66
2022/05/16 06:18:12;;;;;;;;;;;;;;;-140.72;100.00;52265.06;4997259;28;19929;-66
2022/05/16 06:20:38;;;;;;;;;;;;;;;-140.72;100.00;52234.63;5014735;28;20408;-66
2022/05/16 06:23:03;;;;;;;;;;;;;;;-140.72;100.00;52238.69;5015217;28;20011;-67
2022/05/16 06:25:31;;;;;;;;;;;;;;;-140.72;100.00;52269.13;5014825;28;19928;-66
2022/05/16 06:27:57;;;;;;;;;;;;;;;-140.72;100.00;52234.63;5014548;28;20013;-67
2022/05/16 06:30:22;;;;;;;;;;;;;;;-140.72;100.00;52265.06;4996726;28;20285;-67
2022/05/16 06:32:48;;;;;;;;;;;;;;;-140.72;100.00;52256.94;5013945;28;20295;-67
2022/05/16 06:35:14;;;;;;;;;;;;;;;-140.72;100.00;52263.03;4996472;28;19918;-67
2022/05/16 06:37:39;;;;;;;;;;;;;;;-140.72;100.00;52230.56;5015352;28;19918;-67
2022/05/16 06:40:05;;;;;;;;;;;;;;;-140.72;100.00;52210.28;5015470;28;19972;-67
2022/05/16 06:42:30;;;;;;;;;;;;;;;-140.72;100.00;52200.13;5015405;28;19917;-68
2022/05/16 06:44:55;;;;;;;;;;;;;;;-140.72;100.00;52196.06;5003094;28;19928;-67
2022/05/16 06:47:21;;;;;;;;;;;;;;;-140.72;100.00;52189.97;5035327;28;19924;-66
2022/05/16 06:49:46;;;;;;;;;;;;;;;-140.72;100.00;52261.00;5035061;28;19917;-66
2022/05/16 06:52:11;;;;;;;;;;;;;;;-140.72;100.00;52220.41;5034007;28;20016;-67
2022/05/16 06:54:37;;;;;;;;;;;;;;;-140.72;100.00;52198.09;5034879;28;19986;-67
2022/05/16 06:57:03;;;;;;;;;;;;;;;-140.72;100.00;52200.13;5034917;28;19917;-67
2022/05/16 06:59:28;;;;;;;;;;;;;;;-140.72;100.00;52261.00;5034723;28;19917;-67
2022/05/16 07:01:53;;;;;;;;;;;;;;;-140.72;100.00;52202.16;5017091;28;19971;-67
2022/05/16 07:04:19;;;;;;;;;;;;;;;-140.72;100.00;52222.44;5034799;28;19917;-67
2022/05/16 07:06:44;;;;;;;;;;;;;;;-140.72;100.00;52147.38;5034734;28;19967;-67
2022/05/16 07:09:09;;;;;;;;;;;;;;;-140.72;100.00;52167.66;5034744;28;20008;-67
2022/05/16 07:11:34;;;;;;;;;;;;;;;-140.72;100.00;52141.28;5034734;28;19927;-67
2022/05/16 07:14:00;;;;;;;;;;;;;;;-140.72;100.00;52108.81;5016851;28;19917;-67
2022/05/16 07:16:25;;;;;;;;;;;;;;;-140.72;100.00;52159.56;5034667;28;19920;-67
2022/05/16 07:18:50;;;;;;;;;;;;;;;-140.72;100.00;52127.09;5034065;28;19987;-67
2022/05/16 07:21:16;;;;;;;;;;;;;;;-140.72;100.00;52108.81;5033376;28;19917;-67
2022/05/16 07:23:41;;;;;;;;;;;;;;;-140.72;100.00;52098.69;5014934;28;19917;-68
2022/05/16 07:28:50;;;;;;;;;;;;;;;-140.72;100.00;52108.81;5032716;28;19974;-68
2022/05/16 07:31:16;;;;;;;;;;;;;;;-140.72;100.00;52088.53;5031993;28;19999;-68
2022/05/16 07:33:41;;;;;;;;;;;;;;;-140.72;100.00;52147.38;5014207;28;19921;-68
2022/05/16 07:36:07;;;;;;;;;;;;;;;-140.72;100.00;52141.28;5034288;28;19925;-69
2022/05/16 07:38:33;;;;;;;;;;;;;;;-140.72;100.00;52084.47;5022916;28;20265;-69
2022/05/16 07:40:58;;;;;;;;;;;;;;;-140.72;100.00;52074.34;5002003;28;19917;-68
2022/05/16 07:43:25;;;;;;;;;;;;;;;-140.72;100.00;52100.72;5030050;28;19921;-69
2022/05/16 07:45:50;;;;;;;;;;;;;;;-140.72;100.00;52072.31;5016131;28;19917;-68
2022/05/16 07:48:16;;;;;;;;;;;;;;;-140.72;100.00;52062.16;5033515;28;19979;-69
2022/05/16 07:50:42;;;;;;;;;;;;;;;-140.72;100.00;52082.44;5015848;28;19960;-68
2022/05/16 07:53:11;;;;;;;;;;;;;;;-140.72;100.00;52088.53;5034354;28;19921;-69
2022/05/16 07:55:38;;;;;;;;;;;;;;;-140.72;100.00;52056.06;5015822;28;19917;-68
2022/05/16 07:58:03;;;;;;;;;;;;;;;-140.72;100.00;52084.47;5033408;28;19955;-69
2022/05/16 08:00:28;;;;;;;;;;;;;;;-140.72;100.00;52070.28;5033682;28;19978;-70
2022/05/16 08:02:54;;;;;;;;;;;;;;;-140.72;100.00;52017.53;5033520;28;19921;-69
2022/05/16 08:05:20;;;;;;;;;;;;;;;-140.72;100.00;52033.75;5016050;28;19917;-69
2022/05/16 08:10:29;;;;;;;;;;;;;;;-140.72;100.00;52025.63;5014410;28;20376;-68
2022/05/16 08:12:55;;;;;;;;;;;;;;;-140.72;100.00;52019.56;5027255;28;19917;-69
2022/05/16 08:15:20;;;;;;;;;;;;;;;-140.72;100.00;52037.81;5033434;28;19921;-68
2022/05/16 08:17:45;;;;;;;;;;;;;;;-140.72;100.00;52017.53;5033318;28;19917;-68
2022/05/16 08:20:11;;;;;;;;;;;;;;;-140.72;100.00;52009.41;5033585;28;19953;-69
2022/05/16 08:22:36;;;;;;;;;;;;;;;-140.72;100.00;52043.91;5015709;28;19972;-68
2022/05/16 08:25:01;;;;;;;;;;;;;;;-140.72;100.00;52005.34;5015754;28;19971;-69
2022/05/16 08:27:26;;;;;;;;;;;;;;;-140.72;100.00;51981.00;5006973;28;19927;-68
2022/05/16 08:29:52;;;;;;;;;;;;;;;-140.72;100.00;52003.31;5026196;28;19947;-68
2022/05/16 08:32:20;;;;;;;;;;;;;;;-140.72;100.00;51964.78;5033657;28;19917;-68
2022/05/16 08:34:45;;;;;;;;;;;;;;;-140.72;100.00;51948.53;5010650;28;19987;-68
2022/05/16 08:40:04;;;;;;;;;;;;;;;-140.72;100.00;51928.25;5013653;28;19928;-68
2022/05/16 08:42:41;;;;;;;;;;;;;;;-140.72;100.00;51924.19;5013878;28;19925;-68
2022/05/16 08:45:14;;;;;;;;;;;;;;;-140.72;100.00;51907.97;5020199;28;19917;-69
2022/05/16 08:47:42;;;;;;;;;;;;;;;-140.72;100.00;51930.28;5015749;28;19918;-68
2022/05/16 08:50:11;;;;;;;;;;;;;;;-140.72;100.00;51903.91;5033542;28;20008;-70
2022/05/16 08:52:37;;;;;;;;;;;;;;;-140.72;100.00;51912.03;5018370;28;19929;-69
2022/05/16 08:55:35;;;;;;;;;;;;;;;-140.72;100.00;51871.44;5022904;28;20015;-68
2022/05/16 08:58:14;;;;;;;;;;;;;;;-140.72;100.00;51865.34;4981095;28;19918;-69
2022/05/16 09:00:48;;;;;;;;;;;;;;;-140.72;100.00;51859.28;5032435;28;19917;-69
2022/05/16 09:03:17;;;;;;;;;;;;;;;-140.72;100.00;51808.53;5002904;28;19922;-69
2022/05/16 09:05:48;;;;;;;;;;;;;;;-140.72;100.00;51824.78;4995785;28;20364;-69
2022/05/16 09:08:24;;;;;;;;;;;;;;;-140.72;100.00;51806.53;4998600;28;19921;-69
2022/05/16 09:11:09;;;;;;;;;;;;;;;-140.72;100.00;51814.63;5022991;28;19960;-69
2022/05/16 09:13:49;;;;;;;;;;;;;;;-140.72;100.00;51810.56;5015457;28;19927;-71
2022/05/16 09:16:27;;;;;;;;;;;;;;;-140.72;100.00;51765.94;5001739;28;19976;-68
2022/05/16 09:18:58;;;;;;;;;;;;;;;-140.72;100.00;51761.88;5013246;28;19918;-69
2022/05/16 09:21:27;;;;;;;;;;;;;;;-140.72;100.00;51786.22;5010454;28;20438;-68
2022/05/16 09:23:58;;;;;;;;;;;;;;;-140.72;100.00;51780.16;5033171;28;19917;-68
2022/05/16 09:26:36;;;;;;;;;;;;;;;-140.72;100.00;51818.69;5015265;28;19917;-69
2022/05/16 09:29:08;;;;;;;;;;;;;;;-140.72;100.00;51778.13;5015088;28;19943;-69
2022/05/16 09:31:40;;;;;;;;;;;;;;;-140.72;100.00;51770.00;5015286;28;19917;-69
2022/05/16 09:34:09;;;;;;;;;;;;;;;-140.72;100.00;51780.16;5021549;28;20012;-68
2022/05/16 09:36:35;;;;;;;;;;;;;;;-140.72;100.00;51757.81;5027086;28;20000;-68
2022/05/16 09:39:02;;;;;;;;;;;;;;;-140.72;100.00;51737.53;5019858;28;19918;-69
2022/05/16 09:41:33;;;;;;;;;;;;;;;-140.72;100.00;51696.97;5021958;28;19924;-69
2022/05/16 09:44:09;;;;;;;;;;;;;;;-140.72;100.00;51642.19;5015193;28;19921;-69
2022/05/16 09:46:34;;;;;;;;;;;;;;;-140.72;100.00;51654.34;5018097;28;19936;-69
2022/05/16 09:49:03;;;;;;;;;;;;;;;-140.72;100.00;51763.91;5022973;28;20254;-69
2022/05/16 09:51:30;;;;;;;;;;;;;;;-140.72;100.00;51869.41;5017956;28;20372;-68
2022/05/16 09:54:09;;;;;;;;;;;;;;;-140.72;100.00;51993.19;4997493;28;19923;-69
2022/05/16 09:56:35;;;;;;;;;;;;;;;-140.72;100.00;51981.00;4994778;28;20383;-68
2022/05/16 09:59:04;;;;;;;;;;;;;;;-140.72;100.00;52025.63;5022231;28;19968;-69
2022/05/16 10:01:34;;;;;;;;;;;;;;;-140.72;100.00;51991.16;5011935;28;20284;-68
2022/05/16 10:04:12;;;;;;;;;;;;;;;-140.72;100.00;52056.06;5012026;28;19925;-68
2022/05/16 10:06:43;;;;;;;;;;;;;;;-140.72;100.00;52078.38;5012325;28;19917;-68
2022/05/16 10:09:25;;;;;;;;;;;;;;;-140.72;100.00;52064.19;5011668;28;19922;-69
2022/05/16 10:11:51;;;;;;;;;;;;;;;-140.72;100.00;52098.69;5011914;28;19917;-68
2022/05/16 10:14:17;;;;;;;;;;;;;;;-140.72;100.00;52084.47;4993822;28;19917;-71
2022/05/16 10:16:45;;;;;;;;;;;;;;;-140.72;100.00;52114.91;4994069;28;20003;-68
2022/05/16 10:19:12;;;;;;;;;;;;;;;-140.72;100.00;52118.97;5011836;28;20373;-68
2022/05/16 10:21:40;;;;;;;;;;;;;;;-140.72;100.00;52076.34;5011606;28;19917;-68
2022/05/16 10:24:07;;;;;;;;;;;;;;;-140.72;100.00;52070.28;5012142;28;19967;-68
2022/05/16 10:26:34;;;;;;;;;;;;;;;-140.72;100.00;52058.09;5023186;28;20364;-71
2022/05/16 10:29:09;;;;;;;;;;;;;;;-140.72;100.00;52086.50;5021298;28;20355;-70
2022/05/16 10:34:53;;;;;;;;;;;;;;;-140.72;100.00;52064.19;5019703;28;20008;-69
2022/05/16 10:37:20;;;;;;;;;;;;;;;-140.72;100.00;52090.56;4991018;28;19925;-69
2022/05/16 10:39:49;;;;;;;;;;;;;;;-140.72;100.00;52094.63;5005192;28;20296;-69
2022/05/16 10:42:21;;;;;;;;;;;;;;;-140.72;100.00;52080.41;5007045;28;19973;-70
2022/05/16 10:44:52;;;;;;;;;;;;;;;-140.72;100.00;52037.81;5023465;28;19922;-70
2022/05/16 10:47:26;;;;;;;;;;;;;;;-140.72;100.00;52062.16;5015816;28;20053;-69
2022/05/16 10:49:52;;;;;;;;;;;;;;;-140.72;100.00;52070.28;5018528;28;19971;-68
2022/05/16 10:52:23;;;;;;;;;;;;;;;-140.72;100.00;52116.94;5009302;28;19917;-71
2022/05/16 10:54:48;;;;;;;;;;;;;;;-140.72;100.00;52086.50;5026790;28;19991;-70
2022/05/16 10:57:20;;;;;;;;;;;;;;;-140.72;100.00;52147.38;5016100;28;19983;-68
2022/05/16 11:00:07;;;;;;;;;;;;;;;-140.72;100.00;52080.41;5033749;28;19917;-68
2022/05/16 11:02:32;;;;;;;;;;;;;;;-140.72;100.00;52112.88;5016121;28;19925;-68
2022/05/16 11:05:06;;;;;;;;;;;;;;;-140.72;100.00;52100.72;5015873;28;19917;-71
2022/05/16 11:07:48;;;;;;;;;;;;;;;-140.72;100.00;52118.97;5034123;28;19964;-69
2022/05/16 11:10:19;;;;;;;;;;;;;;;-140.72;100.00;52121.00;5016361;28;19917;-69
2022/05/16 11:12:48;;;;;;;;;;;;;;;-140.72;100.00;52143.31;5015807;28;20566;-69
2022/05/16 11:15:25;;;;;;;;;;;;;;;-140.72;100.00;52151.44;5029007;28;20411;-69
2022/05/16 11:17:59;;;;;;;;;;;;;;;-140.72;100.00;52133.16;5013998;28;19917;-69
2022/05/16 11:20:36;;;;;;;;;;;;;;;-140.72;100.00;52167.66;5014202;28;19925;-69
2022/05/16 11:23:21;;;;;;;;;;;;;;;-140.72;100.00;52139.25;5014749;28;20407;-69
2022/05/16 11:25:46;;;;;;;;;;;;;;;-140.72;100.00;52187.97;4983089;28;20001;-69
2022/05/16 11:28:33;;;;;;;;;;;;;;;-140.72;100.00;52185.94;5012301;28;19917;-70
2022/05/16 11:31:12;;;;;;;;;;;;;;;-140.72;100.00;52163.59;5014124;28;20347;-69
2022/05/16 11:33:47;;;;;;;;;;;;;;;-140.72;100.00;52183.91;4995808;28;20278;-68
2022/05/16 11:36:17;;;;;;;;;;;;;;;-140.72;100.00;52238.69;5013144;28;20009;-67
2022/05/16 11:39:01;;;;;;;;;;;;;;;-140.72;100.00;52303.59;5012741;28;20025;-69
2022/05/16 11:41:29;;;;;;;;;;;;;;;-140.72;100.00;52283.31;5013608;28;20320;-67
2022/05/16 11:44:15;;;;;;;;;;;;;;;-140.72;100.00;52265.06;5029208;28;19956;-68
2022/05/16 11:46:40;;;;;;;;;;;;;;;-140.72;100.00;52232.59;5032944;28;19999;-70
2022/05/16 11:49:33;;;;;;;;;;;;;;;-140.72;100.00;52281.28;5032600;28;20340;-68
2022/05/16 11:52:17;;;;;;;;;;;;;;;-140.72;100.00;52267.09;5011609;28;19925;-68
2022/05/16 11:55:01;;;;;;;;;;;;;;;-140.72;100.00;52283.31;5015601;28;19960;-68
2022/05/16 12:00:40;;;;;;;;;;;;;;;-140.72;100.00;52246.78;4953701;28;20378;-69
2022/05/16 12:03:08;;;;;;;;;;;;;;;-140.72;100.00;52196.06;4952981;28;19922;-69
2022/05/16 12:05:43;;;;;;;;;;;;;;;-140.72;100.00;52185.94;4985027;28;19976;-69
2022/05/16 12:08:24;;;;;;;;;;;;;;;-140.72;100.00;52167.66;5014149;28;19929;-69
2022/05/16 12:10:57;;;;;;;;;;;;;;;-140.72;100.00;52121.00;4995784;28;19918;-68
2022/05/16 12:13:31;;;;;;;;;;;;;;;-140.72;100.00;51999.25;5001230;28;19996;-69
2022/05/16 12:16:06;;;;;;;;;;;;;;;-140.72;100.00;52013.47;5014928;28;19976;-68
2022/05/16 12:18:33;;;;;;;;;;;;;;;-140.72;100.00;52003.31;5012781;28;19918;-70
2022/05/16 12:20:58;;;;;;;;;;;;;;;-140.72;100.00;52090.56;5012846;28;19925;-67
2022/05/16 12:23:42;;;;;;;;;;;;;;;-140.72;100.00;52137.22;5011285;28;19921;-67
2022/05/16 12:26:08;;;;;;;;;;;;;;;-140.72;100.00;52106.78;4995006;28;19925;-66
2022/05/16 12:28:34;;;;;;;;;;;;;;;-140.72;100.00;52127.09;4995015;28;20020;-69
2022/05/16 12:31:00;;;;;;;;;;;;;;;-140.72;100.00;51968.81;5012865;28;19924;-67
2022/05/16 12:33:29;;;;;;;;;;;;;;;-140.72;100.00;51910.00;5012173;28;19921;-66
2022/05/16 12:35:54;;;;;;;;;;;;;;;-140.72;100.00;51836.94;5012651;28;19955;-68
2022/05/16 12:38:21;;;;;;;;;;;;;;;-140.72;100.00;51859.28;5012485;28;20241;-69
2022/05/16 12:40:52;;;;;;;;;;;;;;;-140.72;100.00;51855.22;5013282;28;19975;-69
2022/05/16 12:43:35;;;;;;;;;;;;;;;-140.72;100.00;51877.53;5017535;28;19917;-70
2022/05/16 12:46:10;;;;;;;;;;;;;;;-140.72;100.00;51879.56;5015727;28;19921;-69
2022/05/16 12:48:54;;;;;;;;;;;;;;;-140.72;100.00;51968.81;5032372;28;20003;-69
2022/05/16 12:51:25;;;;;;;;;;;;;;;-140.72;100.00;52019.56;5032501;28;19971;-68
2022/05/16 12:54:08;;;;;;;;;;;;;;;-140.72;100.00;52049.97;5015841;28;19917;-67
2022/05/16 12:56:50;;;;;;;;;;;;;;;-140.72;100.00;52041.88;5013408;28;19921;-67
2022/05/16 12:59:26;;;;;;;;;;;;;;;-140.72;100.00;52056.06;5013318;28;19917;-67